Time;durP1;ratioP1;P1;durP2;ratioP2;P2;SDS_P1;SDS_P2;PMS_P1;PMS_P2;Temp;Humidity;BMP_temperature;BMP_pressure;BME280_temperature;BME280_humidity;BME280_pressure;Samples;Min_cycle;Max_cycle;Signal;HPM_P1;HPM_P2
2022/03/18 00:00:18;;;;;;;;;14.67;14.33;;;;;10.26;51.80;103355.97;4980908;28;45736;-86
2022/03/18 00:02:45;;;;;;;;;10.00;10.00;;;;;10.52;51.58;103406.66;4976673;28;45472;-86
2022/03/18 00:05:11;;;;;;;;;10.33;10.33;;;;;9.78;51.86;103273.38;4989164;28;45382;-87
2022/03/18 00:07:37;;;;;;;;;21.33;17.33;;;;;10.20;51.49;103343.53;4996161;27;45397;-85
2022/03/18 00:10:03;;;;;;;;;12.00;12.00;;;;;10.14;51.40;103327.56;4996867;27;46346;-85
2022/03/18 00:12:28;;;;;;;;;17.00;14.33;;;;;10.24;51.60;103366.63;4988079;27;45342;-85
2022/03/18 00:14:53;;;;;;;;;15.00;14.00;;;;;10.20;51.51;103337.31;4980170;28;45402;-86
2022/03/18 00:17:19;;;;;;;;;16.00;13.33;;;;;10.14;51.53;103333.78;4988853;27;45269;-84
2022/03/18 00:19:44;;;;;;;;;25.75;24.00;;;;;10.53;51.30;103401.28;4986022;28;46599;-84
2022/03/18 00:22:11;;;;;;;;;24.67;18.00;;;;;9.64;51.30;103252.06;4975463;28;54626;-84
2022/03/18 00:24:36;;;;;;;;;14.00;13.33;;;;;10.18;51.56;103349.75;4975802;28;45506;-84
2022/03/18 00:27:03;;;;;;;;;15.33;15.33;;;;;9.57;51.59;103250.28;4996698;28;45530;-85
2022/03/18 00:29:30;;;;;;;;;19.00;16.00;;;;;9.73;51.64;103292.00;4982676;27;46319;-85
2022/03/18 00:31:55;;;;;;;;;21.00;16.00;;;;;10.08;51.88;103349.75;4976794;28;45481;-84
2022/03/18 00:34:21;;;;;;;;;14.67;13.67;;;;;9.89;51.31;103338.19;4994824;27;45388;-85
2022/03/18 00:36:46;;;;;;;;;11.67;10.33;;;;;10.33;51.65;103411.97;4996682;28;45531;-85
2022/03/18 00:39:12;;;;;;;;;9.67;9.67;;;;;9.93;51.44;103341.75;4995210;27;47127;-85
2022/03/18 00:41:37;;;;;;;;;13.67;11.67;;;;;10.30;51.59;103405.75;4996037;27;45370;-84
2022/03/18 00:44:03;;;;;;;;;14.67;13.00;;;;;10.10;51.53;103385.28;4996481;28;45327;-85
2022/03/18 00:46:29;;;;;;;;;13.00;10.33;;;;;9.96;51.91;103360.41;4996570;28;45356;-84
2022/03/18 00:54:22;;;;;;;;;15.00;12.67;;;;;9.71;51.75;103332.84;4996098;27;45647;-85
2022/03/18 00:56:47;;;;;;;;;12.33;11.33;;;;;9.74;51.89;103346.19;4996170;27;45729;-85
2022/03/18 00:59:13;;;;;;;;;14.00;11.33;;;;;10.03;51.87;103401.28;4981261;28;47287;-85
2022/03/18 01:01:38;;;;;;;;;16.00;15.33;;;;;9.86;51.67;103377.28;4976549;28;45360;-85
2022/03/18 01:04:04;;;;;;;;;13.00;11.33;;;;;9.69;52.06;103339.94;4996009;28;45323;-85
2022/03/18 01:06:30;;;;;;;;;13.67;12.00;;;;;9.80;51.64;103379.91;4995063;27;45314;-85
2022/03/18 01:08:55;;;;;;;;;14.33;13.33;;;;;9.81;52.03;103374.59;4994419;27;47282;-85
2022/03/18 01:11:21;;;;;;;;;13.33;12.33;;;;;9.40;52.40;103302.63;4981901;27;45355;-85
2022/03/18 01:13:46;;;;;;;;;19.67;15.00;;;;;9.45;52.27;103323.03;4991625;27;45374;-85
2022/03/18 01:16:11;;;;;;;;;13.00;11.00;;;;;9.94;52.95;103415.47;4987150;27;45303;-85
2022/03/18 01:18:37;;;;;;;;;11.00;9.33;;;;;9.43;52.27;103335.44;4995827;27;46560;-85
2022/03/18 01:21:03;;;;;;;;;11.67;11.67;;;;;9.49;52.71;103358.53;4981974;27;45498;-84
2022/03/18 01:23:28;;;;;;;;;11.00;11.00;;;;;9.50;53.04;103360.31;4976202;28;45338;-84
2022/03/18 01:25:55;;;;;;;;;16.33;15.67;;;;;9.42;52.86;103346.97;4976197;28;45305;-85
2022/03/18 01:28:21;;;;;;;;;12.67;10.00;;;;;9.80;53.01;103414.53;4985797;27;47138;-85
2022/03/18 01:30:47;;;;;;;;;9.33;9.00;;;;;9.42;53.04;103368.28;4995305;28;45283;-84
2022/03/18 01:33:12;;;;;;;;;14.00;14.00;;;;;9.71;53.56;103412.72;4995742;27;45384;-84
2022/03/18 01:35:37;;;;;;;;;12.33;11.00;;;;;9.26;53.03;103348.69;4995940;28;45241;-85
2022/03/18 01:38:03;;;;;;;;;15.67;11.33;;;;;9.42;53.35;103381.59;4995391;28;46430;-85
2022/03/18 01:40:28;;;;;;;;;14.33;12.67;;;;;9.04;53.78;103321.13;4995532;27;45258;-85
2022/03/18 01:42:54;;;;;;;;;10.67;9.00;;;;;8.73;53.80;103272.22;4995480;27;45317;-84
2022/03/18 01:45:19;;;;;;;;;16.33;15.00;;;;;9.20;53.13;103353.09;4995418;28;45340;-84
2022/03/18 01:47:45;;;;;;;;;19.00;13.67;;;;;9.16;53.53;103365.53;4994197;27;48077;-85
2022/03/18 01:50:12;;;;;;;;;18.00;14.67;;;;;9.22;53.97;103384.16;4995169;28;45305;-85
2022/03/18 01:52:37;;;;;;;;;14.67;14.67;;;;;9.28;53.76;103392.19;4995624;28;45391;-85
2022/03/18 01:55:04;;;;;;;;;14.00;13.00;;;;;9.48;53.94;103434.88;4995706;28;45535;-84
2022/03/18 01:57:30;;;;;;;;;11.33;10.33;;;;;9.04;54.17;103371.66;4995155;27;46394;-85
2022/03/18 01:59:56;;;;;;;;;14.00;13.00;;;;;8.87;54.02;103344.06;4995328;27;45528;-84
2022/03/18 02:02:22;;;;;;;;;13.33;12.33;;;;;8.95;54.13;103347.69;4994056;27;45516;-84
2022/03/18 02:04:48;;;;;;;;;11.33;11.33;;;;;9.12;54.36;103397.44;4995500;28;45515;-84
2022/03/18 02:07:14;;;;;;;;;15.67;12.33;;;;;8.94;54.74;103359.19;4993949;27;47333;-85
2022/03/18 02:09:40;;;;;;;;;14.67;13.00;;;;;8.70;54.44;103333.34;4993971;28;45839;-85
2022/03/18 02:12:07;;;;;;;;;15.33;14.00;;;;;9.32;54.32;103442.75;4994899;27;45473;-85
2022/03/18 02:14:36;;;;;;;;;13.00;13.00;;;;;8.20;54.84;103260.38;4994967;27;45580;-85
2022/03/18 02:17:04;;;;;;;;;16.33;12.67;;;;;9.26;54.96;103438.28;4992295;28;47323;-85
2022/03/18 02:19:29;;;;;;;;;13.00;13.00;;;;;8.39;54.83;103295.94;4994743;27;45298;-85
2022/03/18 02:21:56;;;;;;;;;16.00;14.00;;;;;8.98;54.52;103403.53;4995138;27;45408;-84
2022/03/18 02:24:22;;;;;;;;;16.00;13.67;;;;;8.64;54.65;103343.97;4994510;28;45431;-85
2022/03/18 02:26:49;;;;;;;;;16.33;12.00;;;;;9.07;54.84;103424.88;4994951;27;45651;-84
2022/03/18 02:29:17;;;;;;;;;16.67;15.67;;;;;9.11;54.78;103444.44;4993157;27;45621;-85
2022/03/18 02:31:43;;;;;;;;;14.33;12.67;;;;;8.99;55.53;103417.72;4975281;28;45412;-86
2022/03/18 02:34:08;;;;;;;;;17.67;14.33;;;;;8.61;55.21;103351.91;4974139;28;45631;-85
2022/03/18 02:36:33;;;;;;;;;15.33;14.00;;;;;8.57;55.07;103356.34;4974140;28;47818;-85
2022/03/18 02:38:59;;;;;;;;;13.00;12.33;;;;;8.60;55.42;103364.31;4975153;28;45250;-85
2022/03/18 02:41:24;;;;;;;;;18.00;16.00;;;;;8.70;55.33;103377.69;4984829;28;45460;-85
2022/03/18 02:43:51;;;;;;;;;15.33;12.00;;;;;8.31;55.58;103318.00;4975632;28;45177;-85
2022/03/18 02:46:17;;;;;;;;;12.00;11.67;;;;;8.06;55.29;103280.63;4973962;28;48557;-85
2022/03/18 02:48:42;;;;;;;;;19.00;17.00;;;;;8.53;55.81;103356.31;4973783;28;45581;-85
2022/03/18 02:51:07;;;;;;;;;14.67;12.33;;;;;8.36;55.86;103340.22;4974896;28;45559;-85
2022/03/18 02:53:34;;;;;;;;;16.00;15.67;;;;;8.43;55.82;103355.34;4975228;28;45373;-85
2022/03/18 02:55:59;;;;;;;;;14.00;14.00;;;;;8.48;55.94;103366.91;4974800;28;46638;-85
2022/03/18 02:58:25;;;;;;;;;17.33;13.67;;;;;8.60;55.99;103396.22;4973372;28;45369;-85
2022/03/18 03:00:51;;;;;;;;;16.33;15.33;;;;;8.49;55.91;103371.31;4981208;28;45415;-86
2022/03/18 03:03:17;;;;;;;;;14.00;13.33;;;;;8.42;56.21;103366.84;4980414;28;45234;-85
2022/03/18 03:08:26;;;;;;;;;18.00;13.33;;;;;8.23;56.06;103342.75;4974636;28;45369;-86
2022/03/18 03:10:52;;;;;;;;;18.00;16.67;;;;;8.73;56.25;103430.84;4973622;28;45251;-85
2022/03/18 03:13:17;;;;;;;;;17.67;16.67;;;;;8.54;56.18;103403.25;4974819;28;45335;-85
2022/03/18 03:15:42;;;;;;;;;8.00;6.67;;;;;8.17;56.00;103333.81;4973428;28;47760;-85
2022/03/18 03:18:08;;;;;;;;;20.67;18.67;;;;;8.69;56.58;103447.69;4974479;28;45175;-85
2022/03/18 03:20:33;;;;;;;;;17.00;15.33;;;;;8.25;56.65;103379.97;4973231;28;45384;-85
2022/03/18 03:22:59;;;;;;;;;18.33;15.67;;;;;8.22;56.59;103385.25;4974997;28;45507;-85
2022/03/18 03:25:24;;;;;;;;;17.67;16.00;;;;;8.61;56.36;103460.91;4977458;28;45334;-85
2022/03/18 03:27:54;;;;;;;;;17.00;17.00;;;;;8.50;56.63;103450.19;4995648;27;45284;-85
2022/03/18 03:30:21;;;;;;;;;22.00;16.33;;;;;7.78;56.83;103314.03;4996850;27;45427;-85
2022/03/18 03:32:46;;;;;;;;;18.00;16.00;;;;;8.61;56.71;103453.81;4997523;27;45365;-85
2022/03/18 03:35:12;;;;;;;;;18.33;17.33;;;;;8.23;56.73;103397.66;4995588;28;48132;-85
2022/03/18 03:37:38;;;;;;;;;16.00;12.33;;;;;8.20;56.76;103403.84;4997070;28;45365;-85
2022/03/18 03:40:04;;;;;;;;;24.67;20.00;;;;;8.18;56.92;103402.03;4997077;27;45292;-85
2022/03/18 03:42:30;;;;;;;;;22.33;16.00;;;;;8.03;57.06;103373.59;4997290;27;45579;-85
2022/03/18 03:44:55;;;;;;;;;18.33;18.33;;;;;8.50;56.74;103447.53;4995481;28;47664;-85
2022/03/18 03:47:21;;;;;;;;;22.00;22.00;;;;;8.05;56.89;103374.47;4996853;27;45417;-85
2022/03/18 03:49:46;;;;;;;;;17.00;17.00;;;;;7.98;57.09;103351.38;4997108;27;45306;-85
2022/03/18 03:52:12;;;;;;;;;22.00;20.00;;;;;8.39;56.97;103423.47;4996952;27;45629;-86
2022/03/18 03:54:38;;;;;;;;;18.67;17.67;;;;;8.68;57.18;103465.38;4987829;27;47343;-85
2022/03/18 03:57:08;;;;;;;;;18.67;15.00;;;;;8.44;57.01;103419.13;4977225;28;45561;-85
2022/03/18 03:59:34;;;;;;;;;24.33;20.67;;;;;8.68;56.78;103465.38;4977196;28;45355;-85
2022/03/18 04:01:59;;;;;;;;;20.33;16.00;;;;;8.51;57.02;103432.47;4980034;28;45312;-85
2022/03/18 04:04:26;;;;;;;;;24.00;21.33;;;;;8.68;56.95;103464.50;4996073;27;45463;-85
2022/03/18 04:06:52;;;;;;;;;20.67;18.67;;;;;8.50;56.78;103422.69;4996681;28;45409;-85
2022/03/18 04:09:17;;;;;;;;;19.67;19.67;;;;;8.35;56.41;103388.91;4996400;27;45421;-85
2022/03/18 04:11:43;;;;;;;;;20.33;19.00;;;;;8.19;56.25;103358.66;4995796;27;45413;-86
2022/03/18 04:14:08;;;;;;;;;22.00;18.67;;;;;8.50;56.61;103406.75;4996640;27;46237;-86
2022/03/18 04:16:34;;;;;;;;;20.00;17.00;;;;;8.37;56.22;103382.72;4996626;28;45341;-85
2022/03/18 04:19:00;;;;;;;;;23.00;18.33;;;;;8.65;56.31;103431.69;4977768;28;45753;-86
2022/03/18 04:21:25;;;;;;;;;20.67;20.33;;;;;8.58;56.07;103432.53;4987220;28;45812;-85
2022/03/18 04:23:50;;;;;;;;;23.00;19.33;;;;;8.98;55.99;103487.78;4996738;28;45349;-86
2022/03/18 04:26:16;;;;;;;;;21.67;18.67;;;;;8.92;55.83;103491.31;4995081;27;45829;-85
2022/03/18 04:28:41;;;;;;;;;26.33;22.33;;;;;8.04;55.83;103354.97;4995242;28;45449;-86
2022/03/18 04:31:06;;;;;;;;;19.33;15.67;;;;;8.52;55.61;103426.28;4995811;27;45827;-85
2022/03/18 04:33:32;;;;;;;;;18.67;18.00;;;;;8.87;55.73;103488.63;4996082;27;45497;-85
2022/03/18 04:35:57;;;;;;;;;21.33;19.33;;;;;8.03;55.68;103355.88;4995254;28;50636;-86
2022/03/18 04:38:23;;;;;;;;;20.33;18.00;;;;;7.89;55.30;103319.44;4991784;27;45916;-86
2022/03/18 04:40:49;;;;;;;;;20.33;16.67;;;;;8.95;55.77;103517.91;4975989;28;45516;-85
2022/03/18 04:43:15;;;;;;;;;21.33;19.00;;;;;8.42;55.56;103418.22;4975180;28;46990;-85
2022/03/18 04:45:40;;;;;;;;;19.67;19.00;;;;;8.85;55.33;103481.50;4991640;27;45708;-85
2022/03/18 04:48:05;;;;;;;;;20.67;16.33;;;;;8.49;55.70;103421.81;4976634;28;45449;-85
2022/03/18 04:50:31;;;;;;;;;19.00;18.00;;;;;8.83;54.99;103478.81;4975432;28;45231;-85
2022/03/18 04:52:56;;;;;;;;;20.67;16.00;;;;;8.87;55.18;103487.69;4976515;28;46092;-85
2022/03/18 04:55:22;;;;;;;;;19.00;17.67;;;;;8.70;55.14;103452.13;4974857;28;45284;-85
2022/03/18 04:57:47;;;;;;;;;19.00;19.00;;;;;8.43;54.67;103408.50;4981130;28;45436;-85
2022/03/18 05:00:13;;;;;;;;;19.00;18.33;;;;;9.05;54.58;103521.53;4996601;27;45293;-85
2022/03/18 05:02:39;;;;;;;;;17.00;15.33;;;;;8.68;54.62;103459.19;4986824;27;45574;-85
2022/03/18 05:05:08;;;;;;;;;18.67;17.33;;;;;9.05;54.29;103525.06;4975065;28;45503;-85
2022/03/18 05:07:34;;;;;;;;;10.67;10.67;;;;;9.05;54.56;103525.06;4974957;28;45417;-85
2022/03/18 05:10:00;;;;;;;;;20.00;17.67;;;;;8.63;53.92;103457.38;4976591;28;45493;-85
2022/03/18 05:12:27;;;;;;;;;21.67;18.33;;;;;8.95;54.55;103507.28;4975798;28;45481;-85
2022/03/18 05:14:53;;;;;;;;;19.67;17.67;;;;;8.62;54.19;103447.63;4983774;28;45895;-85
2022/03/18 05:17:19;;;;;;;;;19.00;17.67;;;;;8.99;54.32;103510.84;4994077;28;45528;-85
2022/03/18 05:19:44;;;;;;;;;15.67;14.67;;;;;8.22;53.63;103375.50;4995903;28;45531;-86
2022/03/18 05:22:09;;;;;;;;;16.67;15.00;;;;;8.82;54.21;103492.97;4994568;28;47437;-86
2022/03/18 05:24:35;;;;;;;;;19.67;16.67;;;;;8.93;53.88;103510.81;4994995;27;45549;-85
2022/03/18 05:27:01;;;;;;;;;16.50;16.50;;;;;9.11;53.77;103547.28;4989820;27;45440;-85
2022/03/18 05:29:27;;;;;;;;;15.00;14.00;;;;;8.21;53.56;103378.16;4976159;28;45455;-86
2022/03/18 05:31:52;;;;;;;;;18.00;16.00;;;;;8.77;53.72;103496.50;4976117;28;46203;-85
2022/03/18 05:34:17;;;;;;;;;19.33;17.33;;;;;9.12;53.89;103547.31;4975895;28;45541;-85
2022/03/18 05:36:43;;;;;;;;;16.00;16.00;;;;;9.05;53.56;103537.50;4974959;28;45465;-85
2022/03/18 05:39:10;;;;;;;;;16.00;14.33;;;;;9.13;53.46;103545.53;4975342;28;45277;-85
2022/03/18 05:41:35;;;;;;;;;16.33;15.00;;;;;8.13;52.82;103378.09;4974114;28;46041;-85
2022/03/18 05:44:01;;;;;;;;;15.33;15.00;;;;;8.67;53.06;103471.59;4975934;28;45374;-85
2022/03/18 05:46:26;;;;;;;;;16.33;15.33;;;;;8.61;53.38;103466.22;4975066;28;45741;-85
2022/03/18 05:48:51;;;;;;;;;15.00;12.67;;;;;8.28;53.23;103403.00;4974963;28;45415;-85
2022/03/18 05:51:17;;;;;;;;;14.33;13.33;;;;;9.11;52.57;103549.94;4975842;28;46270;-85
2022/03/18 05:53:43;;;;;;;;;16.33;15.00;;;;;8.87;53.24;103515.22;4975649;28;45577;-86
2022/03/18 05:58:54;;;;;;;;;19.00;14.67;;;;;8.80;52.84;103496.50;4987573;28;45476;-86
2022/03/18 06:01:19;;;;;;;;;15.67;13.67;;;;;8.25;52.43;103410.06;4993737;28;46455;-85
2022/03/18 06:03:45;;;;;;;;;15.67;13.00;;;;;8.87;52.12;103506.31;4976566;28;45488;-86
2022/03/18 06:06:11;;;;;;;;;15.33;15.33;;;;;8.85;52.48;103498.34;4974344;28;45413;-85
2022/03/18 06:14:04;;;;;;;;;18.00;14.67;;;;;8.56;52.19;103436.94;4975651;28;45365;-87
2022/03/18 06:16:29;;;;;;;;;20.33;18.00;;;;;8.75;51.67;103476.97;4973891;28;53586;-87
2022/03/18 06:18:55;;;;;;;;;22.00;17.33;;;;;9.23;52.16;103558.91;4975758;28;45405;-84
2022/03/18 06:21:23;;;;;;;;;19.33;18.00;;;;;9.04;51.99;103533.94;4974840;28;46329;-83
2022/03/18 06:23:49;;;;;;;;;20.00;18.00;;;;;9.22;52.20;103569.53;4975405;28;45463;-83
2022/03/18 06:26:15;;;;;;;;;22.67;19.67;;;;;9.03;51.90;103529.50;4974990;28;45373;-85
2022/03/18 06:28:41;;;;;;;;;19.00;17.00;;;;;9.26;52.22;103574.91;4995786;27;45496;-84
2022/03/18 06:31:06;;;;;;;;;17.00;17.00;;;;;9.01;51.44;103515.31;5061931;27;46162;-90
2022/03/18 06:33:33;;;;;;;;;16.33;15.67;;;;;9.06;51.49;103507.34;4995046;27;45444;-89
2022/03/18 06:35:58;;;;;;;;;16.33;14.00;;;;;9.05;51.63;103518.88;4993879;28;45466;-90
2022/03/18 06:38:24;;;;;;;;;16.67;13.00;;;;;8.37;51.03;103373.84;4995758;28;45274;-88
2022/03/18 06:40:50;;;;;;;;;16.67;15.33;;;;;8.79;50.86;103442.44;4993156;28;47508;-86
2022/03/18 06:43:15;;;;;;;;;18.33;16.00;;;;;8.52;51.10;103402.34;4985810;28;45515;-84
2022/03/18 06:45:41;;;;;;;;;20.67;17.67;;;;;9.47;51.21;103557.31;4987209;27;45490;-82
2022/03/18 06:48:06;;;;;;;;;70.25;55.00;;;;;9.24;50.49;103510.13;5009811;28;45397;-85
2022/03/18 06:50:32;;;;;;;;;13.67;13.67;;;;;9.46;50.51;103550.22;4993617;27;46716;-83
2022/03/18 06:52:57;;;;;;;;;18.00;16.00;;;;;9.54;50.68;103564.44;4994524;28;45278;-83
2022/03/18 06:55:22;;;;;;;;;13.67;13.67;;;;;9.12;50.36;103490.53;5002925;27;45355;-82
2022/03/18 06:57:48;;;;;;;;;18.33;16.67;;;;;9.25;50.92;103509.25;4997575;28;45532;-80
2022/03/18 07:00:14;;;;;;;;;20.33;20.33;;;;;9.47;50.73;103544.88;5011930;27;46131;-80
2022/03/18 07:02:39;;;;;;;;;19.33;18.00;;;;;9.16;50.13;103509.19;5049468;27;45333;-81
2022/03/18 07:05:05;;;;;;;;;21.67;18.67;;;;;9.59;50.08;103569.81;5044997;27;45304;-81
2022/03/18 07:07:30;;;;;;;;;17.67;17.67;;;;;9.61;50.40;103570.69;5052128;27;45370;-80
2022/03/18 07:09:55;;;;;;;;;20.00;17.33;;;;;9.28;50.25;103505.72;5073934;27;46201;-81
2022/03/18 07:12:21;;;;;;;;;20.33;15.00;;;;;9.17;50.17;103488.81;5091278;27;45462;-81
2022/03/18 07:14:46;;;;;;;;;17.67;17.67;;;;;9.65;49.74;103576.06;5003114;28;45862;-82
2022/03/18 07:19:56;;;;;;;;;18.00;16.33;;;;;9.29;50.67;103503.09;5074342;27;45468;-85
2022/03/18 07:22:24;;;;;;;;;22.67;17.67;;;;;9.39;49.97;103509.34;5063676;27;45258;-84
2022/03/18 07:24:49;;;;;;;;;18.00;17.33;;;;;8.93;49.67;103420.38;4999484;28;45467;-80
2022/03/18 07:27:16;;;;;;;;;22.00;19.67;;;;;9.46;50.15;103497.84;4987135;27;45466;-82
2022/03/18 07:29:41;;;;;;;;;16.67;16.67;;;;;9.79;49.93;103546.84;5004456;28;47605;-82
2022/03/18 07:32:07;;;;;;;;;19.33;18.00;;;;;9.35;49.40;103464.97;4995921;28;45479;-84
2022/03/18 07:34:32;;;;;;;;;21.33;17.00;;;;;9.97;49.67;103548.66;5025233;27;45278;-82
2022/03/18 07:36:58;;;;;;;;;19.67;19.67;;;;;10.01;48.84;103545.13;5061367;27;45531;-81
2022/03/18 07:39:23;;;;;;;;;22.33;17.67;;;;;10.01;48.80;103529.16;4981293;28;48110;-81
2022/03/18 07:41:48;;;;;;;;;16.33;14.67;;;;;9.97;48.94;103508.69;4984426;28;46988;-80
2022/03/18 07:44:13;;;;;;;;;15.33;14.67;;;;;10.09;48.63;103527.41;4983432;28;46504;-81
2022/03/18 07:46:39;;;;;;;;;15.67;15.67;;;;;10.21;49.31;103529.22;4977317;28;45345;-84
2022/03/18 07:49:04;;;;;;;;;20.00;19.00;;;;;10.25;48.63;103522.13;4976589;28;47256;-84
2022/03/18 07:51:30;;;;;;;;;19.00;17.00;;;;;10.27;48.53;103523.00;4973845;28;50355;-84
2022/03/18 07:53:56;;;;;;;;;20.00;18.00;;;;;10.48;48.29;103548.84;4980997;28;45461;-84
2022/03/18 07:56:22;;;;;;;;;16.00;16.00;;;;;10.31;48.02;103507.06;4991650;28;45574;-85
2022/03/18 07:58:48;;;;;;;;;19.00;17.33;;;;;10.78;47.92;103578.25;4983477;28;47214;-84
2022/03/18 08:01:13;;;;;;;;;21.00;18.67;;;;;10.47;47.75;103505.31;4985260;28;45685;-84
2022/03/18 08:03:39;;;;;;;;;22.33;18.33;;;;;10.60;47.37;103515.97;4986706;28;45557;-87
2022/03/18 08:06:04;;;;;;;;;47.25;37.25;;;;;10.88;47.64;103541.78;4983142;28;45550;-87
2022/03/18 08:08:31;;;;;;;;;20.67;19.33;;;;;10.90;47.11;103547.13;4985795;28;48103;-85
2022/03/18 08:10:56;;;;;;;;;20.33;16.00;;;;;11.21;46.89;103572.00;4988899;27;45420;-85
2022/03/18 08:13:23;;;;;;;;;20.33;19.67;;;;;10.66;46.95;103460.00;4995984;27;45483;-86
2022/03/18 08:15:48;;;;;;;;;21.00;19.00;;;;;11.24;46.78;103552.44;4994951;27;45501;-89
2022/03/18 08:18:13;;;;;;;;;15.67;15.00;;;;;11.48;48.94;103564.88;5001051;27;48257;-87
2022/03/18 08:20:40;;;;;;;;;15.33;13.67;;;;;11.76;49.28;103592.41;4991697;27;45718;-87
2022/03/18 08:23:14;;;;;;;;;19.33;17.67;;;;;11.61;46.76;103547.91;4993111;27;45518;-88
2022/03/18 08:25:40;;;;;;;;;20.00;19.00;;;;;11.75;45.74;103532.75;5004488;27;45563;-87
2022/03/18 08:28:07;;;;;;;;;17.00;16.67;;;;;12.38;45.32;103593.06;4999718;27;45454;-89
2022/03/18 08:30:32;;;;;;;;;19.33;17.67;;;;;12.61;46.21;103595.59;5028842;27;45409;-86
2022/03/18 08:32:57;;;;;;;;;19.67;18.00;;;;;12.72;44.29;103588.41;4991665;27;45482;-90
2022/03/18 08:35:23;;;;;;;;;18.00;15.67;;;;;12.20;44.84;103496.00;5040363;27;45541;-90
2022/03/18 08:37:57;;;;;;;;;16.33;13.67;;;;;12.78;44.79;103588.38;4992320;28;47293;-87
2022/03/18 08:40:41;;;;;;;;;15.67;15.67;;;;;12.66;43.92;103546.50;4980081;28;45718;-84
2022/03/18 08:43:09;;;;;;;;;20.33;17.33;;;;;13.05;46.26;103589.91;4989631;27;45823;-83
2022/03/18 08:45:35;;;;;;;;;22.33;17.67;;;;;13.04;43.15;103573.84;4991042;28;45679;-83
2022/03/18 08:48:00;;;;;;;;;14.67;14.67;;;;;13.28;43.79;103572.81;4982429;27;46430;-81
2022/03/18 08:50:26;;;;;;;;;18.00;16.33;;;;;13.39;43.12;103587.00;4987470;28;45528;-83
2022/03/18 08:52:54;;;;;;;;;16.33;14.00;;;;;13.34;44.03;103553.97;4985613;28;45411;-83
2022/03/18 08:55:20;;;;;;;;;18.00;15.67;;;;;13.69;42.48;103582.19;4992567;28;45513;-83
2022/03/18 08:57:46;;;;;;;;;13.00;11.33;;;;;13.64;43.90;103549.19;4978350;28;45531;-83
2022/03/18 09:00:15;;;;;;;;;18.67;16.67;;;;;14.07;41.14;103570.09;4992814;27;45318;-84
2022/03/18 09:02:43;;;;;;;;;14.33;14.33;;;;;14.19;40.86;103574.41;4985671;28;45405;-83
2022/03/18 09:05:09;;;;;;;;;14.67;13.00;;;;;14.41;41.29;103572.34;4989308;28;45537;-84
2022/03/18 09:07:36;;;;;;;;;13.00;12.00;;;;;14.81;41.94;103582.50;4989668;28;45288;-82
2022/03/18 09:10:03;;;;;;;;;14.67;12.00;;;;;14.85;41.37;103525.16;5012320;27;45784;-87
2022/03/18 09:12:28;;;;;;;;;13.00;12.00;;;;;15.88;38.33;103582.41;4993640;28;45868;-86
2022/03/18 09:14:54;;;;;;;;;12.33;9.33;;;;;16.99;35.80;103521.50;4990918;28;45571;-83
2022/03/18 09:17:21;;;;;;;;;10.33;8.67;;;;;19.02;32.97;103573.03;4982949;27;46348;-83
2022/03/18 09:19:46;;;;;;;;;10.67;10.00;;;;;20.32;30.69;103563.75;4983236;28;45453;-83
2022/03/18 09:22:13;;;;;;;;;11.33;9.67;;;;;21.46;29.36;103547.19;4981404;28;45423;-84
2022/03/18 09:24:39;;;;;;;;;8.00;7.33;;;;;22.45;27.39;103524.47;4983052;28;45437;-85
2022/03/18 09:27:05;;;;;;;;;9.33;8.00;;;;;23.66;26.54;103559.91;4993784;28;45315;-84
2022/03/18 09:29:31;;;;;;;;;7.67;7.67;;;;;24.58;25.34;103560.22;4981367;28;45457;-84
2022/03/18 09:31:56;;;;;;;;;7.67;7.67;;;;;25.24;24.17;103561.78;4979102;28;45307;-84
2022/03/18 09:34:24;;;;;;;;;10.00;8.67;;;;;25.67;23.33;103510.78;4986041;28;45423;-87
2022/03/18 09:36:57;;;;;;;;;12.67;11.67;;;;;26.28;22.24;103562.47;4983560;28;45495;-86
2022/03/18 09:39:24;;;;;;;;;10.00;9.67;;;;;26.58;23.32;103543.16;4983234;28;45456;-87
2022/03/18 09:41:50;;;;;;;;;7.00;5.00;;;;;27.43;23.08;103554.63;4983186;28;45515;-86
2022/03/18 09:44:18;;;;;;;;;8.33;6.67;;;;;28.45;22.61;103555.44;4978651;28;45235;-87
2022/03/18 09:46:47;;;;;;;;;10.33;9.00;;;;;29.15;21.77;103521.72;4987568;28;46539;-87
2022/03/18 09:49:14;;;;;;;;;8.00;8.00;;;;;29.87;20.41;103546.16;4984332;28;45520;-87
2022/03/18 09:51:42;;;;;;;;;10.00;8.33;;;;;30.25;19.59;103518.22;4987283;28;45446;-85
2022/03/18 09:54:10;;;;;;;;;10.00;8.67;;;;;31.06;19.86;103532.44;4980666;28;45395;-84
2022/03/18 09:56:39;;;;;;;;;9.00;8.33;;;;;31.92;19.50;103543.22;4981498;27;45392;-85
2022/03/18 09:59:05;;;;;;;;;9.33;7.00;;;;;32.67;18.19;103540.91;4986983;28;45435;-81
2022/03/18 10:01:30;;;;;;;;;7.33;6.00;;;;;33.10;17.35;103507.28;4978794;28;45432;-81
2022/03/18 10:04:02;;;;;;;;;8.00;8.00;;;;;33.83;17.32;103532.38;4986262;28;45622;-81
2022/03/18 10:06:27;;;;;;;;;2.33;2.33;;;;;34.47;15.67;103515.81;4982957;28;45685;-83
2022/03/18 10:08:54;;;;;;;;;6.33;5.00;;;;;35.24;15.25;103533.63;4983902;27;45568;-84
2022/03/18 10:11:25;;;;;;;;;5.33;5.33;;;;;35.67;14.67;103497.63;4980480;27;45653;-83
2022/03/18 10:14:03;;;;;;;;;7.33;5.67;;;;;36.56;14.79;103552.56;4980879;27;45872;-86
2022/03/18 10:16:37;;;;;;;;;5.00;5.00;;;;;37.38;13.61;103535.84;4979622;28;46994;-85
2022/03/18 10:19:06;;;;;;;;;5.67;5.67;;;;;37.90;13.67;103540.03;4978169;27;45632;-83
2022/03/18 10:21:32;;;;;;;;;6.00;4.67;;;;;38.61;11.69;103540.84;4985359;28;45645;-83
2022/03/18 10:24:06;;;;;;;;;5.33;5.33;;;;;38.94;10.91;103512.69;4980197;28;45222;-83
2022/03/18 10:26:37;;;;;;;;;3.33;3.33;;;;;39.31;11.76;103530.41;4976171;28;46977;-82
2022/03/18 10:29:04;;;;;;;;;6.67;4.67;;;;;39.99;9.03;103545.16;4986245;27;45782;-84
2022/03/18 10:31:30;;;;;;;;;5.33;5.33;;;;;40.40;10.74;103521.31;4978066;28;45357;-83
2022/03/18 10:39:35;;;;;;;;;4.00;4.00;;;;;43.08;9.49;103519.53;4979225;27;45448;-83
2022/03/18 10:42:04;;;;;;;;;5.67;5.67;;;;;43.45;8.54;103517.09;4984204;27;45467;-82
2022/03/18 10:44:45;;;;;;;;;5.00;4.67;;;;;43.49;9.19;103527.66;4980528;28;45431;-82
2022/03/18 10:47:41;;;;;;;;;6.00;5.67;;;;;43.11;8.79;103524.75;4977489;28;46705;-83
2022/03/18 10:50:17;;;;;;;;;5.67;5.33;;;;;42.67;8.89;103529.06;4992597;27;45419;-83
2022/03/18 10:52:49;;;;;;;;;5.33;3.33;;;;;42.29;8.91;103535.25;4978783;28;45499;-84
2022/03/18 10:55:21;;;;;;;;;6.67;5.00;;;;;42.14;8.15;103518.59;4983006;28;45477;-81
2022/03/18 10:57:53;;;;;;;;;5.00;5.00;;;;;41.37;9.06;103522.56;4984327;28;46239;-81
2022/03/18 11:00:20;;;;;;;;;3.00;3.00;;;;;40.44;8.79;103523.53;4983672;28;45643;-82
2022/03/18 11:02:48;;;;;;;;;3.00;3.00;;;;;39.78;9.48;103522.69;4990894;27;45319;-82
2022/03/18 11:05:14;;;;;;;;;3.67;3.67;;;;;38.96;9.57;103513.38;4987917;27;45693;-83
2022/03/18 11:07:43;;;;;;;;;3.67;3.33;;;;;37.80;10.54;103520.75;4989261;28;46513;-83
2022/03/18 11:12:59;;;;;;;;;4.33;3.33;;;;;36.51;11.45;103527.19;4984736;27;45526;-82
2022/03/18 11:15:25;;;;;;;;;4.67;4.67;;;;;35.64;10.18;103509.94;4986096;28;45719;-86
2022/03/18 11:17:51;;;;;;;;;3.00;3.00;;;;;34.98;10.93;103514.19;4988076;28;45355;-86
2022/03/18 11:20:20;;;;;;;;;4.00;4.00;;;;;34.39;11.38;103477.81;4990097;28;45578;-85
2022/03/18 11:22:48;;;;;;;;;5.00;5.00;;;;;34.14;12.77;103457.34;4989324;27;45462;-85
2022/03/18 11:25:15;;;;;;;;;3.67;3.67;;;;;34.04;12.08;103475.84;4986600;27;45571;-84
2022/03/18 11:27:44;;;;;;;;;3.00;3.00;;;;;34.05;12.11;103489.56;4987302;27;45421;-82
2022/03/18 11:30:23;;;;;;;;;3.67;3.67;;;;;33.69;12.71;103496.03;4987336;27;45462;-85
2022/03/18 11:33:09;;;;;;;;;4.67;3.67;;;;;33.52;12.48;103501.31;4980475;27;46036;-85
2022/03/18 11:35:52;;;;;;;;;6.00;6.00;;;;;33.20;12.72;103510.91;4986799;28;45423;-84
2022/03/18 11:38:30;;;;;;;;;2.00;2.00;;;;;32.89;13.43;103493.63;4986047;28;46204;-84
2022/03/18 11:40:58;;;;;;;;;6.67;4.67;;;;;32.40;13.68;103495.50;4989868;27;45550;-86